Time;durP1;ratioP1;P1;durP2;ratioP2;P2;SDS_P1;SDS_P2;PMS_P1;PMS_P2;Temp;Humidity;BMP_temperature;BMP_pressure;BME280_temperature;BME280_humidity;BME280_pressure;Samples;Min_cycle;Max_cycle;Signal;HPM_P1;HPM_P2
2022/02/02 00:01:05;;;;;;;26.75;8.27;;;;;;;3.72;89.90;99771.25;8614311;33;20459;-74
2022/02/02 00:06:14;;;;;;;18.48;5.40;;;;;;;3.49;90.73;99763.88;8613873;33;20457;-75
2022/02/02 00:16:47;;;;;;;17.80;5.47;;;;;;;3.79;89.30;99787.66;8602661;33;21462;-75
2022/02/02 00:21:55;;;;;;;17.58;5.35;;;;;;;3.73;89.41;99818.13;8615526;33;20405;-75
2022/02/02 00:27:04;;;;;;;28.80;6.25;;;;;;;3.75;89.60;99798.56;8618957;33;20412;-76
2022/02/02 00:32:15;;;;;;;14.10;3.67;;;;;;;3.83;88.43;99813.09;8607121;33;20934;-76
2022/02/02 00:37:19;;;;;;;13.65;4.03;;;;;;;3.77;87.79;99821.44;8583744;33;20491;-77
2022/02/02 00:42:29;;;;;;;19.07;4.13;;;;;;;3.59;87.80;99833.19;8597383;33;20446;-75
2022/02/02 00:47:37;;;;;;;11.32;3.65;;;;;;;3.95;86.39;99862.84;8621019;33;20155;-76
2022/02/02 00:52:40;;;;;;;16.63;4.72;;;;;;;3.67;85.90;99862.78;8620843;33;20190;-76
2022/02/02 00:57:44;;;;;;;10.98;3.35;;;;;;;3.97;86.26;99851.25;8620513;33;20856;-76
2022/02/02 01:02:47;;;;;;;8.77;3.38;;;;;;;3.80;85.78;99861.09;8609632;33;20504;-76
2022/02/02 01:14:16;;;;;;;17.02;3.17;;;;;;;3.82;83.48;99842.44;8605468;33;20419;-75
2022/02/02 01:18:59;;;;;;;13.73;3.88;;;;;;;4.00;82.88;99853.69;8604630;33;20340;-76
2022/02/02 01:29:27;;;;;;;8.35;3.78;;;;;;;3.70;81.72;99854.63;8575177;33;20139;-76
2022/02/02 01:34:30;;;;;;;20.20;4.07;;;;;;;3.75;81.35;99852.56;8613107;33;20189;-76
2022/02/02 01:39:34;;;;;;;14.45;4.88;;;;;;;3.60;81.45;99853.50;8609726;33;20537;-75
2022/02/02 01:44:46;;;;;;;15.23;4.43;;;;;;;3.83;81.33;99860.91;8602756;33;20205;-75
2022/02/02 01:50:11;;;;;;;15.65;4.30;;;;;;;3.91;79.91;99853.31;8605676;33;20865;-75
2022/02/02 01:55:17;;;;;;;13.02;5.32;;;;;;;3.99;79.60;99862.63;8608188;33;20432;-75
2022/02/02 02:00:22;;;;;;;23.15;5.28;;;;;;;4.04;79.26;99869.38;8600018;33;20451;-75
2022/02/02 02:05:26;;;;;;;16.42;5.32;;;;;;;3.86;79.51;99858.06;8598771;33;20413;-74
2022/02/02 02:10:29;;;;;;;18.02;5.20;;;;;;;3.98;79.26;99855.59;8605024;33;21075;-75
2022/02/02 02:15:34;;;;;;;19.13;4.70;;;;;;;4.01;78.56;99855.44;8603101;33;20413;-74
2022/02/02 02:20:39;;;;;;;23.75;6.20;;;;;;;4.11;78.03;99854.75;8602069;33;20527;-75
2022/02/02 02:25:43;;;;;;;18.17;4.75;;;;;;;4.30;78.07;99873.03;8604591;33;20613;-75
2022/02/02 02:30:50;;;;;;;12.95;3.85;;;;;;;4.08;76.97;99873.53;8604584;33;20976;-76
2022/02/02 02:57:43;;;;;;;20.55;4.22;;;;;;;4.07;78.36;99890.44;8604313;33;20456;-75
2022/02/02 03:03:26;;;;;;;22.48;4.32;;;;;;;4.04;78.43;99893.28;8601947;33;20273;-74
2022/02/02 03:30:02;;;;;;;15.73;3.75;;;;;;;3.99;78.57;99950.34;8606409;33;21190;-75
2022/02/02 03:35:25;;;;;;;12.88;3.60;;;;;;;3.64;81.79;99950.63;8603509;33;20420;-76
2022/02/02 03:51:31;;;;;;;10.38;3.55;;;;;;;3.59;83.36;99966.84;8602253;33;20592;-75
2022/02/02 03:56:44;;;;;;;11.23;3.47;;;;;;;3.83;81.63;99969.00;8601779;33;20277;-74
2022/02/02 04:02:06;;;;;;;11.02;3.50;;;;;;;3.40;83.34;99955.56;8602682;33;20289;-74
2022/02/02 04:07:16;;;;;;;16.05;3.13;;;;;;;3.22;82.07;99982.25;8600803;33;20438;-74
2022/02/02 04:12:36;;;;;;;7.57;2.17;;;;;;;3.39;81.04;99968.00;8601873;33;20229;-75
2022/02/02 04:17:50;;;;;;;15.10;3.65;;;;;;;3.22;80.50;99974.28;8603546;33;20147;-76
2022/02/02 04:51:15;;;;;;;8.50;2.60;;;;;;;3.39;78.77;100002.53;8604977;33;20162;-75
2022/02/02 04:55:26;;;;;;;9.30;3.17;;;;;;;3.21;78.51;100030.97;8561113;33;20444;-74
2022/02/02 05:06:00;;;;;;;13.02;3.10;;;;;;;3.63;79.13;100018.00;8603505;33;20452;-74
2022/02/02 05:11:18;;;;;;;9.15;3.50;;;;;;;3.46;78.33;100003.03;8582652;33;20418;-74
2022/02/02 05:16:34;;;;;;;5.97;2.92;;;;;;;3.68;78.32;100026.56;8578310;33;20463;-76
2022/02/02 05:43:32;;;;;;;11.35;3.50;;;;;;;3.82;77.04;100095.69;8599942;33;20497;-75
2022/02/02 05:48:49;;;;;;;12.70;3.17;;;;;;;3.66;76.61;100106.31;8603748;33;20139;-75
2022/02/02 05:53:53;;;;;;;12.73;3.92;;;;;;;3.69;75.49;100100.84;8611140;33;20147;-75
2022/02/02 05:58:57;;;;;;;12.57;3.67;;;;;;;3.97;74.43;100117.84;8616953;33;20858;-75
2022/02/02 06:04:01;;;;;;;17.35;4.03;;;;;;;3.45;74.33;100095.09;8601757;33;20306;-76
2022/02/02 06:09:07;;;;;;;12.75;3.90;;;;;;;3.67;74.39;100121.31;8598969;33;20421;-75
2022/02/02 06:14:14;;;;;;;15.43;3.53;;;;;;;3.41;74.88;100114.81;8604731;33;21078;-76
2022/02/02 06:19:17;;;;;;;16.80;3.80;;;;;;;3.91;73.32;100123.53;8604349;33;20454;-74
2022/02/02 06:24:32;;;;;;;18.23;4.00;;;;;;;3.60;73.66;100121.78;8604567;33;20188;-75
2022/02/02 06:29:42;;;;;;;13.95;4.05;;;;;;;3.71;72.94;100141.47;8604247;33;20415;-76
2022/02/02 06:34:47;;;;;;;19.55;4.35;;;;;;;3.62;73.42;100139.34;8604985;33;21131;-76
2022/02/02 06:39:51;;;;;;;19.05;4.32;;;;;;;3.40;74.11;100149.41;8604571;33;20148;-74
2022/02/02 06:44:55;;;;;;;13.73;4.28;;;;;;;3.24;74.33;100155.56;8603339;33;20422;-75
2022/02/02 06:50:07;;;;;;;15.02;4.50;;;;;;;3.45;73.64;100161.50;8600798;33;20763;-74
2022/02/02 06:55:23;;;;;;;16.67;4.45;;;;;;;3.53;74.57;100192.09;8603745;33;20170;-75
2022/02/02 07:00:36;;;;;;;11.68;4.00;;;;;;;3.61;73.76;100222.59;8601099;33;21279;-75
2022/02/02 07:05:49;;;;;;;16.08;3.80;;;;;;;3.71;74.38;100222.97;8602494;33;20203;-75
2022/02/02 07:11:09;;;;;;;18.02;4.03;;;;;;;3.48;74.39;100226.88;8604237;33;20147;-75
2022/02/02 07:16:25;;;;;;;19.98;5.50;;;;;;;3.77;73.43;100241.22;8604927;33;20413;-75
2022/02/02 07:21:46;;;;;;;13.88;3.38;;;;;;;3.83;72.91;100258.63;8599862;33;20543;-75
2022/02/02 07:27:22;;;;;;;18.63;5.22;;;;;;;4.06;73.14;100260.00;8595277;33;20426;-74
2022/02/02 07:32:30;;;;;;;17.67;4.10;;;;;;;4.10;73.18;100275.69;8597026;33;20266;-75
2022/02/02 07:37:36;;;;;;;15.43;4.07;;;;;;;4.29;73.14;100274.69;8595360;33;20192;-76
2022/02/02 07:42:47;;;;;;;20.30;4.22;;;;;;;4.18;72.71;100280.59;8596924;33;20274;-76
2022/02/02 07:47:59;;;;;;;19.08;4.43;;;;;;;4.55;72.15;100290.00;8596837;33;20444;-77
2022/02/02 07:53:08;;;;;;;22.35;4.90;;;;;;;4.42;72.57;100301.44;8584272;33;20590;-76
2022/02/02 07:58:17;;;;;;;18.52;4.38;;;;;;;4.05;73.61;100309.66;8589957;33;20436;-77
2022/02/02 08:03:21;;;;;;;14.82;3.83;;;;;;;4.37;73.56;100322.97;8590854;33;20932;-77
2022/02/02 08:08:31;;;;;;;15.50;4.30;;;;;;;4.30;73.30;100317.13;8593303;33;20161;-77
2022/02/02 08:13:42;;;;;;;10.32;3.95;;;;;;;3.87;73.46;100319.50;8600074;33;20922;-75
2022/02/02 08:18:47;;;;;;;9.88;4.07;;;;;;;4.87;71.23;100331.66;8602394;33;20411;-76
2022/02/02 08:23:50;;;;;;;16.27;4.97;;;;;;;4.69;70.78;100330.91;8602308;33;20474;-77
2022/02/02 08:28:58;;;;;;;18.95;4.43;;;;;;;4.83;70.73;100352.28;8605017;33;20517;-75
2022/02/02 08:34:08;;;;;;;16.70;4.82;;;;;;;4.85;71.33;100366.34;8615476;33;20205;-76
2022/02/02 08:39:26;;;;;;;13.65;4.82;;;;;;;4.54;73.83;100373.41;8611417;33;20575;-76
2022/02/02 08:44:42;;;;;;;15.18;3.88;;;;;;;4.16;75.06;100384.34;8609049;33;20523;-76
2022/02/02 08:49:51;;;;;;;12.50;3.42;;;;;;;4.06;76.97;100387.59;8612914;33;20428;-77
2022/02/02 08:55:00;;;;;;;10.27;3.92;;;;;;;4.22;75.06;100401.78;8603221;33;20139;-76
2022/02/02 09:00:11;;;;;;;16.25;4.25;;;;;;;4.36;74.39;100396.59;8597635;33;20465;-76
2022/02/02 09:05:23;;;;;;;10.98;3.40;;;;;;;4.15;74.04;100387.97;8601884;33;20416;-75
2022/02/02 09:32:30;;;;;;;12.75;3.70;;;;;;;4.36;75.57;100432.94;8574123;33;21772;-76
2022/02/02 09:37:34;;;;;;;13.88;4.50;;;;;;;4.78;76.38;100442.19;8642765;33;20422;-76
2022/02/02 09:42:37;;;;;;;14.93;3.38;;;;;;;4.54;75.65;100431.94;8658466;33;20182;-77
2022/02/02 09:47:47;;;;;;;13.52;3.72;;;;;;;4.09;75.41;100443.28;8631364;33;20355;-77
2022/02/02 09:52:56;;;;;;;20.52;4.60;;;;;;;4.26;77.09;100455.69;8625759;33;20508;-77
2022/02/02 09:58:22;;;;;;;12.32;3.72;;;;;;;4.49;77.10;100454.41;8653374;33;20126;-76
2022/02/02 10:14:14;;;;;;;14.50;3.38;;;;;;;5.26;74.84;100497.13;8676865;33;22067;-76
2022/02/02 10:19:21;;;;;;;14.32;3.70;;;;;;;4.72;76.58;100498.41;8667126;33;20444;-76
2022/02/02 10:24:46;;;;;;;9.10;2.92;;;;;;;4.36;73.30;100507.41;8663000;33;20454;-75
2022/02/02 10:29:49;;;;;;;8.93;2.40;;;;;;;4.90;69.94;100512.50;8657572;33;20421;-76
2022/02/02 10:34:53;;;;;;;8.75;2.67;;;;;;;4.66;69.64;100520.88;8658209;33;20186;-76
2022/02/02 10:39:57;;;;;;;12.90;2.88;;;;;;;4.28;70.09;100522.91;8656259;33;20487;-74
2022/02/02 10:45:20;;;;;;;6.82;2.53;;;;;;;4.60;69.53;100521.19;8631280;33;20146;-76
2022/02/02 10:50:31;;;;;;;8.40;2.30;;;;;;;4.84;69.85;100527.84;8660089;33;20604;-74
2022/02/02 10:55:55;;;;;;;7.03;2.80;;;;;;;6.27;68.40;100518.78;8654617;33;20410;-76
2022/02/02 11:01:21;;;;;;;7.97;3.00;;;;;;;7.26;65.81;100501.84;8658613;33;20482;-76
2022/02/02 11:06:38;;;;;;;11.00;3.20;;;;;;;7.46;65.42;100513.03;8661490;33;20546;-75
2022/02/02 11:11:42;;;;;;;10.57;2.38;;;;;;;7.10;65.42;100524.31;8663043;33;20146;-76
2022/02/02 11:16:52;;;;;;;11.18;3.88;;;;;;;7.15;65.84;100524.88;8662582;33;20649;-76
2022/02/02 11:22:30;;;;;;;10.90;3.17;;;;;;;7.63;63.17;100539.53;8662369;33;20142;-76
2022/02/02 11:27:38;;;;;;;11.73;5.05;;;;;;;8.11;63.01;100549.69;8660336;33;20624;-74
2022/02/02 11:32:45;;;;;;;8.98;3.10;;;;;;;9.04;59.96;100558.38;8661313;33;20863;-76
2022/02/02 11:37:57;;;;;;;10.23;2.60;;;;;;;7.92;61.04;100552.75;8662232;33;20147;-76
2022/02/02 11:43:07;;;;;;;11.55;3.53;;;;;;;7.99;61.44;100543.34;8659244;33;21004;-76
2022/02/02 11:48:17;;;;;;;13.60;3.15;;;;;;;7.28;62.77;100558.72;8658661;33;20434;-76
2022/02/02 11:54:01;;;;;;;4.95;1.77;;;;;;;6.89;61.90;100546.09;8654840;33;20471;-75
2022/02/02 12:00:00;;;;;;;9.13;2.92;;;;;;;6.82;62.12;100545.56;8649210;33;20436;-76
2022/02/02 12:05:12;;;;;;;8.70;2.88;;;;;;;6.78;63.53;100561.91;8597861;33;20690;-76
2022/02/02 12:10:38;;;;;;;10.90;3.47;;;;;;;7.88;60.91;100543.22;8652562;33;20182;-77
2022/02/02 12:27:45;;;;;;;12.80;3.90;;;;;;;9.28;58.56;100558.44;8637691;33;20189;-75
2022/02/02 12:49:00;;;;;;;7.10;3.10;;;;;;;11.79;48.01;100564.00;8657531;33;20254;-76
2022/02/02 12:59:55;;;;;;;15.18;3.00;;;;;;;6.11;69.39;100590.84;8664320;32;20776;-75
2022/02/02 13:05:00;;;;;;;10.38;3.35;;;;;;;8.95;63.31;100601.94;8663573;33;20177;-77
2022/02/02 13:10:08;;;;;;;9.60;3.78;;;;;;;10.66;54.09;100604.41;8658380;33;20512;-77
2022/02/02 13:15:28;;;;;;;10.02;3.17;;;;;;;8.03;60.50;100610.88;8659727;33;20162;-75
2022/02/02 13:20:45;;;;;;;7.47;2.40;;;;;;;7.82;59.31;100622.06;8655285;32;20188;-76
2022/02/02 13:25:55;;;;;;;8.55;2.65;;;;;;;7.42;63.71;100634.47;8655346;33;20166;-74
2022/02/02 13:31:00;;;;;;;14.45;4.18;;;;;;;7.89;69.13;100644.75;8663079;33;20450;-76
2022/02/02 13:36:19;;;;;;;11.55;4.13;;;;;;;8.39;72.48;100656.59;8678042;33;20265;-77
2022/02/02 13:47:02;;;;;;;9.60;3.38;;;;;;;9.77;66.77;100648.72;8661588;33;20967;-76
2022/02/02 13:52:46;;;;;;;6.20;2.22;;;;;;;10.56;60.71;100646.41;8658098;33;20153;-76
2022/02/02 13:58:07;;;;;;;12.45;2.50;;;;;;;10.04;54.82;100650.34;8660146;33;21043;-76
2022/02/02 14:35:22;;;;;;;9.18;2.40;;;;;;;10.88;51.13;100662.72;8666920;33;20412;-75
2022/02/02 14:40:32;;;;;;;6.45;2.50;;;;;;;10.71;51.49;100668.53;8663260;33;20490;-74
2022/02/02 14:45:39;;;;;;;12.60;3.47;;;;;;;9.74;53.89;100686.50;8661888;33;20194;-76
2022/02/02 14:50:56;;;;;;;9.02;3.70;;;;;;;9.57;53.75;100693.09;8614523;33;20402;-76
2022/02/02 14:56:50;;;;;;;11.00;2.92;;;;;;;8.75;53.84;100708.66;8618644;33;20266;-75
2022/02/02 15:29:13;;;;;;;8.80;2.30;;;;;;;7.43;59.55;100749.31;8314836;34;20509;-75
2022/02/02 15:34:25;;;;;;;5.90;2.20;;;;;;;7.10;59.83;100749.56;8528864;33;20444;-76
2022/02/02 15:39:35;;;;;;;12.25;2.40;;;;;;;6.64;61.20;100768.31;8577697;33;20477;-77
2022/02/02 15:45:04;;;;;;;5.68;2.30;;;;;;;7.05;60.91;100781.91;8600691;33;20144;-76
2022/02/02 15:56:31;;;;;;;5.63;2.63;;;;;;;6.34;61.74;100793.16;8594930;33;20163;-75
2022/02/02 16:06:44;;;;;;;6.70;2.53;;;;;;;5.90;62.11;100800.97;8593246;33;21392;-75
2022/02/02 16:12:03;;;;;;;7.70;2.30;;;;;;;5.82;61.90;100804.06;8595688;33;20143;-76
2022/02/02 16:17:18;;;;;;;6.72;2.20;;;;;;;5.80;61.44;100813.06;8600952;33;21039;-75
2022/02/02 16:38:28;;;;;;;5.80;1.92;;;;;;;5.14;63.26;100833.41;8596895;33;21419;-76
2022/02/02 16:43:32;;;;;;;9.23;2.40;;;;;;;5.26;62.66;100838.09;8598212;33;20493;-75
2022/02/02 16:48:36;;;;;;;6.60;1.90;;;;;;;4.94;64.16;100838.84;8598670;33;20978;-74
2022/02/02 16:53:45;;;;;;;4.80;1.88;;;;;;;4.84;64.20;100843.75;8594794;33;20412;-75
2022/02/02 17:31:02;;;;;;;7.75;3.30;;;;;;;4.15;66.20;100890.50;8606498;33;20734;-77
2022/02/02 17:36:17;;;;;;;7.40;2.80;;;;;;;4.17;66.17;100895.78;8617182;33;20300;-75
2022/02/02 17:41:51;;;;;;;7.43;2.95;;;;;;;4.25;65.61;100896.28;8611281;33;20437;-75
2022/02/02 18:21:07;;;;;;;7.57;3.35;;;;;;;4.27;64.92;100925.44;8545908;33;20243;-77
2022/02/02 18:26:17;;;;;;;11.13;3.38;;;;;;;4.24;64.90;100930.91;8559611;33;20413;-75
2022/02/02 18:31:37;;;;;;;12.07;4.30;;;;;;;4.25;65.43;100914.91;8536516;33;20256;-75
2022/02/02 18:36:47;;;;;;;8.20;3.10;;;;;;;4.32;65.52;100924.28;8561538;33;20183;-76
2022/02/02 18:47:33;;;;;;;10.93;4.60;;;;;;;4.35;65.79;100934.78;8625834;33;20405;-76
2022/02/02 18:53:03;;;;;;;11.95;4.97;;;;;;;4.24;65.60;100934.44;8629202;33;20211;-77
2022/02/02 18:58:14;;;;;;;8.70;5.30;;;;;;;4.17;66.38;100931.19;8623473;33;20422;-76
2022/02/02 19:57:21;;;;;;;7.80;4.82;;;;;;;3.78;67.89;100917.03;8604027;33;20393;-75
2022/02/02 20:02:49;;;;;;;23.75;5.43;;;;;;;3.77;67.54;100920.63;8616231;33;20430;-76
2022/02/02 20:08:18;;;;;;;14.18;4.88;;;;;;;3.77;68.10;100928.59;8604967;33;20659;-75
2022/02/02 20:13:23;;;;;;;14.68;6.03;;;;;;;3.77;67.86;100924.13;8590336;33;20658;-76
2022/02/02 20:18:28;;;;;;;12.90;5.68;;;;;;;3.72;67.94;100929.66;8603074;33;20512;-76
2022/02/02 20:23:31;;;;;;;14.25;5.43;;;;;;;3.65;68.39;100933.53;8587458;33;20966;-75
2022/02/02 20:28:36;;;;;;;14.27;6.05;;;;;;;3.57;68.61;100937.44;8588171;33;20427;-76
2022/02/02 20:33:39;;;;;;;14.57;6.88;;;;;;;3.55;69.14;100942.81;8586401;33;20413;-76
2022/02/02 20:38:42;;;;;;;14.45;6.20;;;;;;;3.53;69.26;100952.63;8587235;33;20643;-76
2022/02/02 20:43:54;;;;;;;14.95;6.57;;;;;;;3.47;69.79;100950.25;8585165;33;20452;-76
2022/02/02 21:10:24;;;;;;;14.40;6.00;;;;;;;3.59;70.70;100954.16;8588239;33;20726;-76
2022/02/02 21:15:32;;;;;;;13.45;5.40;;;;;;;3.70;70.07;100962.53;8604128;33;20419;-78
2022/02/02 21:20:41;;;;;;;14.15;5.93;;;;;;;3.68;70.11;100959.94;8601411;33;20131;-75
2022/02/02 21:25:48;;;;;;;11.48;5.25;;;;;;;3.82;69.92;100958.50;8609454;33;20431;-77
2022/02/02 21:30:52;;;;;;;13.70;6.00;;;;;;;3.87;69.50;100948.53;8609385;33;20684;-76
2022/02/02 21:35:57;;;;;;;13.43;8.05;;;;;;;3.77;69.54;100928.59;8604585;33;20468;-76
2022/02/02 21:41:01;;;;;;;17.33;6.88;;;;;;;3.62;69.78;100946.06;8606065;33;20427;-77
2022/02/02 21:46:05;;;;;;;12.63;5.97;;;;;;;3.50;71.22;100948.31;8565633;33;20157;-75
2022/02/02 21:51:11;;;;;;;12.23;5.15;;;;;;;3.59;71.46;100947.03;8598740;33;20348;-76
2022/02/02 21:56:14;;;;;;;11.38;5.18;;;;;;;3.60;71.64;100951.44;8601738;33;20432;-75
2022/02/02 22:01:19;;;;;;;10.82;5.00;;;;;;;3.78;71.20;100948.91;8605693;33;20541;-76
2022/02/02 22:06:22;;;;;;;11.93;5.45;;;;;;;3.71;71.35;100951.00;8612873;33;20197;-76
2022/02/02 22:11:25;;;;;;;15.50;6.00;;;;;;;3.70;71.39;100943.94;8613061;33;20179;-76
2022/02/02 22:16:29;;;;;;;10.43;5.10;;;;;;;3.59;71.13;100939.06;8620588;33;20202;-76
2022/02/02 22:21:33;;;;;;;15.68;6.35;;;;;;;3.53;71.62;100936.69;8623147;33;20415;-75
2022/02/02 22:26:37;;;;;;;11.07;5.95;;;;;;;3.42;71.79;100923.00;8623119;33;20229;-76
2022/02/02 22:31:41;;;;;;;13.93;6.25;;;;;;;3.26;72.38;100923.69;8623430;33;20187;-75
2022/02/02 22:36:45;;;;;;;13.07;5.88;;;;;;;3.23;72.58;100923.78;8625922;33;20889;-75
2022/02/02 22:41:48;;;;;;;12.45;6.22;;;;;;;3.28;72.99;100910.31;8621367;33;20148;-75
2022/02/02 22:46:53;;;;;;;10.90;6.22;;;;;;;3.40;72.82;100911.56;8619632;33;21003;-76
2022/02/02 22:51:56;;;;;;;7.30;5.40;;;;;;;3.37;72.65;100917.88;8622623;33;20425;-76
2022/02/02 22:56:59;;;;;;;13.23;6.38;;;;;;;3.38;73.10;100919.63;8609747;33;21132;-75
2022/02/02 23:02:15;;;;;;;13.52;6.60;;;;;;;3.44;73.04;100915.84;8580046;33;20412;-76
2022/02/02 23:07:18;;;;;;;11.52;5.30;;;;;;;3.52;72.79;100912.88;8581361;33;20484;-75
2022/02/02 23:12:24;;;;;;;16.58;5.22;;;;;;;3.71;72.62;100911.97;8602640;33;21190;-76
2022/02/02 23:17:30;;;;;;;18.65;6.55;;;;;;;3.82;72.06;100922.16;8603473;33;20961;-75
2022/02/02 23:22:34;;;;;;;13.38;6.53;;;;;;;3.93;71.76;100935.81;8578438;33;20577;-75
2022/02/02 23:27:38;;;;;;;16.88;5.78;;;;;;;3.89;72.07;100928.91;8605259;33;20240;-76
2022/02/02 23:32:43;;;;;;;14.13;5.88;;;;;;;3.99;72.01;100917.88;8604051;33;20169;-75
2022/02/02 23:37:47;;;;;;;13.48;6.13;;;;;;;4.04;71.80;100923.84;8605485;33;22034;-76
2022/02/02 23:42:50;;;;;;;12.68;5.78;;;;;;;3.94;72.49;100926.03;8603929;33;21313;-75
2022/02/02 23:47:59;;;;;;;13.77;5.93;;;;;;;3.93;73.23;100922.53;8604315;33;21100;-75
2022/02/02 23:53:02;;;;;;;15.63;6.82;;;;;;;4.00;73.89;100914.25;8603644;33;20242;-76
2022/02/02 23:58:13;;;;;;;12.95;6.35;;;;;;;3.99;74.70;100912.56;8603861;33;21022;-76
